sensor_id;sensor_type;location;lat;lon;timestamp;P1;durP1;ratioP1;P2;durP2;ratioP2
40150;SDS011;25866;52.420;10.640;2023-08-06T00:00:07;3.15;;;1.70;;
40150;SDS011;25866;52.420;10.640;2023-08-06T00:02:33;4.10;;;1.63;;
40150;SDS011;25866;52.420;10.640;2023-08-06T00:04:59;1.70;;;1.20;;
40150;SDS011;25866;52.420;10.640;2023-08-06T00:07:26;2.95;;;1.42;;
40150;SDS011;25866;52.420;10.640;2023-08-06T00:09:51;6.35;;;1.80;;
40150;SDS011;25866;52.420;10.640;2023-08-06T00:12:17;1.88;;;1.45;;
40150;SDS011;25866;52.420;10.640;2023-08-06T00:14:43;4.43;;;1.20;;
40150;SDS011;25866;52.420;10.640;2023-08-06T00:17:10;2.65;;;1.40;;
40150;SDS011;25866;52.420;10.640;2023-08-06T00:19:36;2.08;;;1.20;;
40150;SDS011;25866;52.420;10.640;2023-08-06T00:22:01;1.70;;;1.20;;
40150;SDS011;25866;52.420;10.640;2023-08-06T00:24:27;2.47;;;1.40;;
40150;SDS011;25866;52.420;10.640;2023-08-06T00:26:53;2.33;;;1.45;;
40150;SDS011;25866;52.420;10.640;2023-08-06T00:29:19;5.35;;;1.40;;
40150;SDS011;25866;52.420;10.640;2023-08-06T00:31:44;4.15;;;1.63;;
40150;SDS011;25866;52.420;10.640;2023-08-06T00:34:10;4.55;;;1.27;;
40150;SDS011;25866;52.420;10.640;2023-08-06T00:36:36;2.35;;;1.30;;
40150;SDS011;25866;52.420;10.640;2023-08-06T00:39:02;1.55;;;1.45;;
40150;SDS011;25866;52.420;10.640;2023-08-06T00:41:28;4.18;;;1.30;;
40150;SDS011;25866;52.420;10.640;2023-08-06T00:43:53;2.55;;;1.60;;
40150;SDS011;25866;52.420;10.640;2023-08-06T00:46:19;4.10;;;1.42;;
40150;SDS011;25866;52.420;10.640;2023-08-06T00:48:45;1.83;;;1.25;;
40150;SDS011;25866;52.420;10.640;2023-08-06T00:51:12;4.78;;;1.50;;
40150;SDS011;25866;52.420;10.640;2023-08-06T00:53:38;2.65;;;1.60;;
40150;SDS011;25866;52.420;10.640;2023-08-06T00:56:05;2.40;;;1.33;;
40150;SDS011;25866;52.420;10.640;2023-08-06T00:58:33;1.95;;;1.65;;
40150;SDS011;25866;52.420;10.640;2023-08-06T01:00:59;2.83;;;1.70;;
40150;SDS011;25866;52.420;10.640;2023-08-06T01:03:25;3.17;;;1.83;;
40150;SDS011;25866;52.420;10.640;2023-08-06T01:05:51;3.10;;;2.00;;
40150;SDS011;25866;52.420;10.640;2023-08-06T01:11:25;2.30;;;1.45;;
40150;SDS011;25866;52.420;10.640;2023-08-06T01:14:13;3.72;;;1.70;;
40150;SDS011;25866;52.420;10.640;2023-08-06T01:16:48;3.38;;;1.80;;
40150;SDS011;25866;52.420;10.640;2023-08-06T01:19:16;2.03;;;1.60;;
40150;SDS011;25866;52.420;10.640;2023-08-06T01:21:46;1.90;;;1.73;;
40150;SDS011;25866;52.420;10.640;2023-08-06T01:24:11;2.75;;;1.60;;
40150;SDS011;25866;52.420;10.640;2023-08-06T01:26:39;2.53;;;1.52;;
40150;SDS011;25866;52.420;10.640;2023-08-06T01:29:14;4.30;;;1.65;;
40150;SDS011;25866;52.420;10.640;2023-08-06T01:31:48;2.83;;;1.70;;
40150;SDS011;25866;52.420;10.640;2023-08-06T01:34:19;2.92;;;1.80;;
40150;SDS011;25866;52.420;10.640;2023-08-06T01:36:47;2.25;;;1.40;;
40150;SDS011;25866;52.420;10.640;2023-08-06T01:39:13;1.90;;;1.70;;
40150;SDS011;25866;52.420;10.640;2023-08-06T01:41:39;5.75;;;1.85;;
40150;SDS011;25866;52.420;10.640;2023-08-06T01:44:06;4.68;;;1.60;;
40150;SDS011;25866;52.420;10.640;2023-08-06T01:46:31;1.55;;;1.45;;
40150;SDS011;25866;52.420;10.640;2023-08-06T01:48:57;4.32;;;1.48;;
40150;SDS011;25866;52.420;10.640;2023-08-06T01:51:23;5.68;;;1.60;;
40150;SDS011;25866;52.420;10.640;2023-08-06T01:53:48;2.38;;;1.50;;
40150;SDS011;25866;52.420;10.640;2023-08-06T01:56:14;1.88;;;1.50;;
40150;SDS011;25866;52.420;10.640;2023-08-06T01:58:40;3.55;;;1.63;;
40150;SDS011;25866;52.420;10.640;2023-08-06T02:01:05;3.45;;;1.48;;
40150;SDS011;25866;52.420;10.640;2023-08-06T02:03:39;2.58;;;1.63;;
40150;SDS011;25866;52.420;10.640;2023-08-06T02:06:05;3.75;;;1.50;;
40150;SDS011;25866;52.420;10.640;2023-08-06T02:08:31;3.50;;;1.73;;
40150;SDS011;25866;52.420;10.640;2023-08-06T02:10:56;3.65;;;1.50;;
40150;SDS011;25866;52.420;10.640;2023-08-06T02:13:23;2.75;;;1.70;;
40150;SDS011;25866;52.420;10.640;2023-08-06T02:15:49;2.65;;;1.80;;
40150;SDS011;25866;52.420;10.640;2023-08-06T02:18:15;5.75;;;2.25;;
40150;SDS011;25866;52.420;10.640;2023-08-06T02:20:41;2.38;;;1.70;;
40150;SDS011;25866;52.420;10.640;2023-08-06T02:25:44;5.47;;;1.80;;
40150;SDS011;25866;52.420;10.640;2023-08-06T02:28:10;3.80;;;1.55;;
40150;SDS011;25866;52.420;10.640;2023-08-06T02:30:36;2.47;;;1.90;;
40150;SDS011;25866;52.420;10.640;2023-08-06T02:33:02;2.25;;;1.70;;
40150;SDS011;25866;52.420;10.640;2023-08-06T02:35:30;2.05;;;1.80;;
40150;SDS011;25866;52.420;10.640;2023-08-06T02:37:56;3.38;;;1.98;;
40150;SDS011;25866;52.420;10.640;2023-08-06T02:40:21;3.10;;;2.20;;
40150;SDS011;25866;52.420;10.640;2023-08-06T02:42:47;3.28;;;2.00;;
40150;SDS011;25866;52.420;10.640;2023-08-06T02:45:13;6.85;;;2.20;;
40150;SDS011;25866;52.420;10.640;2023-08-06T02:47:39;2.25;;;1.90;;
40150;SDS011;25866;52.420;10.640;2023-08-06T02:50:04;2.35;;;2.00;;
40150;SDS011;25866;52.420;10.640;2023-08-06T02:52:31;3.92;;;2.00;;
40150;SDS011;25866;52.420;10.640;2023-08-06T02:55:13;3.67;;;2.17;;
40150;SDS011;25866;52.420;10.640;2023-08-06T02:57:38;3.35;;;2.38;;
40150;SDS011;25866;52.420;10.640;2023-08-06T03:00:04;2.28;;;2.08;;
40150;SDS011;25866;52.420;10.640;2023-08-06T03:02:31;5.00;;;2.05;;
40150;SDS011;25866;52.420;10.640;2023-08-06T03:07:26;3.58;;;1.88;;
40150;SDS011;25866;52.420;10.640;2023-08-06T03:09:52;3.67;;;2.25;;
40150;SDS011;25866;52.420;10.640;2023-08-06T03:12:18;2.78;;;2.10;;
40150;SDS011;25866;52.420;10.640;2023-08-06T03:14:43;6.10;;;2.85;;
40150;SDS011;25866;52.420;10.640;2023-08-06T03:17:09;4.93;;;2.30;;
40150;SDS011;25866;52.420;10.640;2023-08-06T03:19:35;3.35;;;2.40;;
40150;SDS011;25866;52.420;10.640;2023-08-06T03:22:00;13.85;;;2.42;;
40150;SDS011;25866;52.420;10.640;2023-08-06T03:24:27;4.55;;;2.20;;
40150;SDS011;25866;52.420;10.640;2023-08-06T03:26:53;2.72;;;2.38;;
40150;SDS011;25866;52.420;10.640;2023-08-06T03:29:18;3.42;;;2.53;;
40150;SDS011;25866;52.420;10.640;2023-08-06T03:31:46;2.63;;;2.42;;
40150;SDS011;25866;52.420;10.640;2023-08-06T03:34:13;5.15;;;2.50;;
40150;SDS011;25866;52.420;10.640;2023-08-06T03:36:38;5.40;;;2.60;;
40150;SDS011;25866;52.420;10.640;2023-08-06T03:39:04;2.80;;;2.33;;
40150;SDS011;25866;52.420;10.640;2023-08-06T03:41:30;5.35;;;2.75;;
40150;SDS011;25866;52.420;10.640;2023-08-06T03:43:55;6.97;;;2.90;;
40150;SDS011;25866;52.420;10.640;2023-08-06T03:46:21;7.70;;;2.70;;
40150;SDS011;25866;52.420;10.640;2023-08-06T03:48:47;3.05;;;2.60;;
40150;SDS011;25866;52.420;10.640;2023-08-06T03:51:12;5.07;;;2.67;;
40150;SDS011;25866;52.420;10.640;2023-08-06T03:53:40;4.32;;;2.97;;
40150;SDS011;25866;52.420;10.640;2023-08-06T03:56:06;6.70;;;3.28;;
40150;SDS011;25866;52.420;10.640;2023-08-06T03:58:32;3.55;;;3.17;;
40150;SDS011;25866;52.420;10.640;2023-08-06T04:01:01;5.32;;;2.88;;
40150;SDS011;25866;52.420;10.640;2023-08-06T04:03:30;5.20;;;3.10;;
40150;SDS011;25866;52.420;10.640;2023-08-06T04:05:56;4.35;;;2.92;;
40150;SDS011;25866;52.420;10.640;2023-08-06T04:08:23;8.40;;;3.05;;
40150;SDS011;25866;52.420;10.640;2023-08-06T04:10:49;4.63;;;2.88;;
40150;SDS011;25866;52.420;10.640;2023-08-06T04:13:18;4.13;;;2.85;;
40150;SDS011;25866;52.420;10.640;2023-08-06T04:15:47;3.80;;;3.30;;
40150;SDS011;25866;52.420;10.640;2023-08-06T04:18:13;5.60;;;3.35;;
40150;SDS011;25866;52.420;10.640;2023-08-06T04:20:43;4.10;;;3.10;;
40150;SDS011;25866;52.420;10.640;2023-08-06T04:23:10;4.68;;;3.08;;
40150;SDS011;25866;52.420;10.640;2023-08-06T04:25:36;6.40;;;2.83;;
40150;SDS011;25866;52.420;10.640;2023-08-06T04:28:02;5.30;;;3.20;;
40150;SDS011;25866;52.420;10.640;2023-08-06T04:30:27;3.33;;;2.90;;
40150;SDS011;25866;52.420;10.640;2023-08-06T04:32:53;6.00;;;3.20;;
40150;SDS011;25866;52.420;10.640;2023-08-06T04:35:23;5.15;;;2.95;;
40150;SDS011;25866;52.420;10.640;2023-08-06T04:37:49;3.90;;;3.47;;
40150;SDS011;25866;52.420;10.640;2023-08-06T04:40:14;3.78;;;2.85;;
40150;SDS011;25866;52.420;10.640;2023-08-06T04:42:40;3.63;;;2.90;;
40150;SDS011;25866;52.420;10.640;2023-08-06T04:45:08;3.92;;;3.20;;
40150;SDS011;25866;52.420;10.640;2023-08-06T04:47:34;5.85;;;3.40;;
40150;SDS011;25866;52.420;10.640;2023-08-06T04:50:00;5.70;;;3.20;;
40150;SDS011;25866;52.420;10.640;2023-08-06T04:52:26;4.13;;;3.33;;
40150;SDS011;25866;52.420;10.640;2023-08-06T04:57:31;3.05;;;2.75;;
40150;SDS011;25866;52.420;10.640;2023-08-06T04:59:57;4.43;;;2.70;;
40150;SDS011;25866;52.420;10.640;2023-08-06T05:02:22;4.03;;;3.25;;
40150;SDS011;25866;52.420;10.640;2023-08-06T05:05:06;4.82;;;3.13;;
40150;SDS011;25866;52.420;10.640;2023-08-06T05:07:31;7.88;;;3.25;;
40150;SDS011;25866;52.420;10.640;2023-08-06T05:09:57;3.90;;;3.08;;
40150;SDS011;25866;52.420;10.640;2023-08-06T05:12:23;3.50;;;2.83;;
40150;SDS011;25866;52.420;10.640;2023-08-06T05:14:51;4.30;;;2.90;;
40150;SDS011;25866;52.420;10.640;2023-08-06T05:17:16;3.53;;;3.10;;
40150;SDS011;25866;52.420;10.640;2023-08-06T05:19:42;5.05;;;3.20;;
40150;SDS011;25866;52.420;10.640;2023-08-06T05:22:08;4.07;;;3.22;;
40150;SDS011;25866;52.420;10.640;2023-08-06T05:24:40;5.80;;;3.45;;
40150;SDS011;25866;52.420;10.640;2023-08-06T05:27:06;6.45;;;3.08;;
40150;SDS011;25866;52.420;10.640;2023-08-06T05:29:32;5.65;;;2.90;;
40150;SDS011;25866;52.420;10.640;2023-08-06T05:31:58;3.78;;;3.30;;
40150;SDS011;25866;52.420;10.640;2023-08-06T05:34:23;4.57;;;3.00;;
40150;SDS011;25866;52.420;10.640;2023-08-06T05:36:50;5.68;;;3.22;;
40150;SDS011;25866;52.420;10.640;2023-08-06T05:39:15;5.78;;;3.38;;
40150;SDS011;25866;52.420;10.640;2023-08-06T05:41:41;6.25;;;3.67;;
40150;SDS011;25866;52.420;10.640;2023-08-06T05:44:07;6.32;;;3.05;;
40150;SDS011;25866;52.420;10.640;2023-08-06T05:46:33;4.10;;;3.17;;
40150;SDS011;25866;52.420;10.640;2023-08-06T05:48:59;4.30;;;2.97;;
40150;SDS011;25866;52.420;10.640;2023-08-06T05:51:26;5.05;;;3.42;;
40150;SDS011;25866;52.420;10.640;2023-08-06T05:53:52;7.43;;;3.47;;
40150;SDS011;25866;52.420;10.640;2023-08-06T05:56:22;4.70;;;3.35;;
40150;SDS011;25866;52.420;10.640;2023-08-06T05:58:47;9.88;;;3.30;;
40150;SDS011;25866;52.420;10.640;2023-08-06T06:01:15;7.20;;;3.63;;
40150;SDS011;25866;52.420;10.640;2023-08-06T06:03:44;5.13;;;3.50;;
40150;SDS011;25866;52.420;10.640;2023-08-06T06:06:10;3.75;;;3.22;;
40150;SDS011;25866;52.420;10.640;2023-08-06T06:08:36;6.80;;;3.28;;
40150;SDS011;25866;52.420;10.640;2023-08-06T06:11:01;5.75;;;3.20;;
40150;SDS011;25866;52.420;10.640;2023-08-06T06:13:27;5.90;;;3.40;;
40150;SDS011;25866;52.420;10.640;2023-08-06T06:15:56;3.65;;;2.90;;
40150;SDS011;25866;52.420;10.640;2023-08-06T06:18:22;5.00;;;3.17;;
40150;SDS011;25866;52.420;10.640;2023-08-06T06:20:47;3.55;;;3.25;;
40150;SDS011;25866;52.420;10.640;2023-08-06T06:23:13;4.63;;;2.72;;
40150;SDS011;25866;52.420;10.640;2023-08-06T06:25:51;4.68;;;3.05;;
40150;SDS011;25866;52.420;10.640;2023-08-06T06:28:17;7.65;;;3.42;;
40150;SDS011;25866;52.420;10.640;2023-08-06T06:30:43;3.45;;;3.13;;
40150;SDS011;25866;52.420;10.640;2023-08-06T06:33:09;5.10;;;3.20;;
40150;SDS011;25866;52.420;10.640;2023-08-06T06:35:35;4.85;;;3.00;;
40150;SDS011;25866;52.420;10.640;2023-08-06T06:38:01;4.57;;;3.00;;
40150;SDS011;25866;52.420;10.640;2023-08-06T06:40:27;4.75;;;3.45;;
40150;SDS011;25866;52.420;10.640;2023-08-06T06:42:53;3.75;;;3.00;;
40150;SDS011;25866;52.420;10.640;2023-08-06T06:45:19;5.32;;;3.40;;
40150;SDS011;25866;52.420;10.640;2023-08-06T06:47:51;5.40;;;3.20;;
40150;SDS011;25866;52.420;10.640;2023-08-06T06:50:16;5.45;;;3.35;;
40150;SDS011;25866;52.420;10.640;2023-08-06T06:52:42;3.10;;;2.80;;
40150;SDS011;25866;52.420;10.640;2023-08-06T06:55:11;6.78;;;3.42;;
40150;SDS011;25866;52.420;10.640;2023-08-06T06:57:43;3.50;;;2.75;;
40150;SDS011;25866;52.420;10.640;2023-08-06T07:00:09;4.95;;;3.20;;
40150;SDS011;25866;52.420;10.640;2023-08-06T07:02:35;4.60;;;3.17;;
40150;SDS011;25866;52.420;10.640;2023-08-06T07:05:03;4.05;;;2.58;;
40150;SDS011;25866;52.420;10.640;2023-08-06T07:07:37;4.88;;;3.17;;
40150;SDS011;25866;52.420;10.640;2023-08-06T07:10:03;3.65;;;2.70;;
40150;SDS011;25866;52.420;10.640;2023-08-06T07:12:28;3.30;;;2.70;;
40150;SDS011;25866;52.420;10.640;2023-08-06T07:14:54;3.00;;;2.45;;
40150;SDS011;25866;52.420;10.640;2023-08-06T07:17:21;3.15;;;2.80;;
40150;SDS011;25866;52.420;10.640;2023-08-06T07:19:47;3.53;;;2.35;;
40150;SDS011;25866;52.420;10.640;2023-08-06T07:22:12;4.38;;;2.65;;
40150;SDS011;25866;52.420;10.640;2023-08-06T07:24:38;2.90;;;2.58;;
40150;SDS011;25866;52.420;10.640;2023-08-06T07:27:04;2.88;;;2.45;;
40150;SDS011;25866;52.420;10.640;2023-08-06T07:29:31;3.28;;;2.63;;
40150;SDS011;25866;52.420;10.640;2023-08-06T07:31:57;3.17;;;2.50;;
40150;SDS011;25866;52.420;10.640;2023-08-06T07:34:22;3.13;;;2.35;;
40150;SDS011;25866;52.420;10.640;2023-08-06T07:36:49;2.95;;;2.38;;
40150;SDS011;25866;52.420;10.640;2023-08-06T07:39:15;2.38;;;2.10;;
40150;SDS011;25866;52.420;10.640;2023-08-06T07:41:41;3.85;;;2.40;;
40150;SDS011;25866;52.420;10.640;2023-08-06T07:44:07;3.42;;;2.70;;
40150;SDS011;25866;52.420;10.640;2023-08-06T07:46:33;2.85;;;2.58;;
40150;SDS011;25866;52.420;10.640;2023-08-06T07:48:59;5.00;;;2.47;;
40150;SDS011;25866;52.420;10.640;2023-08-06T07:51:24;3.53;;;2.35;;
40150;SDS011;25866;52.420;10.640;2023-08-06T07:53:50;2.40;;;1.77;;
40150;SDS011;25866;52.420;10.640;2023-08-06T07:56:16;3.22;;;1.63;;
40150;SDS011;25866;52.420;10.640;2023-08-06T07:58:46;2.00;;;1.70;;
40150;SDS011;25866;52.420;10.640;2023-08-06T08:01:11;2.55;;;1.90;;
40150;SDS011;25866;52.420;10.640;2023-08-06T08:03:37;2.58;;;2.30;;
40150;SDS011;25866;52.420;10.640;2023-08-06T08:06:03;2.28;;;2.08;;
40150;SDS011;25866;52.420;10.640;2023-08-06T08:08:36;3.30;;;2.40;;
40150;SDS011;25866;52.420;10.640;2023-08-06T08:11:05;4.53;;;2.33;;
40150;SDS011;25866;52.420;10.640;2023-08-06T08:13:31;2.88;;;2.28;;
40150;SDS011;25866;52.420;10.640;2023-08-06T08:15:57;3.25;;;1.90;;
40150;SDS011;25866;52.420;10.640;2023-08-06T08:18:30;2.83;;;2.50;;
40150;SDS011;25866;52.420;10.640;2023-08-06T08:20:56;5.55;;;2.03;;
40150;SDS011;25866;52.420;10.640;2023-08-06T08:23:22;2.63;;;1.67;;
40150;SDS011;25866;52.420;10.640;2023-08-06T08:25:48;3.95;;;1.80;;
40150;SDS011;25866;52.420;10.640;2023-08-06T08:28:30;3.17;;;1.60;;
40150;SDS011;25866;52.420;10.640;2023-08-06T08:31:11;3.08;;;1.70;;
40150;SDS011;25866;52.420;10.640;2023-08-06T08:33:37;6.00;;;1.90;;
40150;SDS011;25866;52.420;10.640;2023-08-06T08:36:03;1.65;;;1.55;;
40150;SDS011;25866;52.420;10.640;2023-08-06T08:38:30;5.38;;;1.50;;
40150;SDS011;25866;52.420;10.640;2023-08-06T08:40:56;2.42;;;1.50;;
40150;SDS011;25866;52.420;10.640;2023-08-06T08:43:30;2.00;;;1.33;;
40150;SDS011;25866;52.420;10.640;2023-08-06T08:45:56;2.92;;;1.48;;
40150;SDS011;25866;52.420;10.640;2023-08-06T08:51:11;2.53;;;1.50;;
40150;SDS011;25866;52.420;10.640;2023-08-06T08:53:38;1.55;;;1.40;;
40150;SDS011;25866;52.420;10.640;2023-08-06T08:56:05;3.17;;;1.40;;
40150;SDS011;25866;52.420;10.640;2023-08-06T08:58:31;1.20;;;1.10;;
40150;SDS011;25866;52.420;10.640;2023-08-06T09:00:57;2.35;;;1.20;;
40150;SDS011;25866;52.420;10.640;2023-08-06T09:03:23;3.95;;;1.45;;
40150;SDS011;25866;52.420;10.640;2023-08-06T09:05:52;1.25;;;1.10;;
40150;SDS011;25866;52.420;10.640;2023-08-06T09:08:21;2.42;;;1.15;;
40150;SDS011;25866;52.420;10.640;2023-08-06T09:10:55;2.08;;;1.58;;
40150;SDS011;25866;52.420;10.640;2023-08-06T09:13:22;1.25;;;1.15;;
40150;SDS011;25866;52.420;10.640;2023-08-06T09:15:48;1.48;;;1.00;;
40150;SDS011;25866;52.420;10.640;2023-08-06T09:18:21;1.75;;;1.30;;
40150;SDS011;25866;52.420;10.640;2023-08-06T09:20:52;3.20;;;1.23;;
40150;SDS011;25866;52.420;10.640;2023-08-06T09:23:17;2.78;;;1.23;;
40150;SDS011;25866;52.420;10.640;2023-08-06T09:25:45;1.55;;;1.38;;
40150;SDS011;25866;52.420;10.640;2023-08-06T09:28:11;1.50;;;1.40;;
40150;SDS011;25866;52.420;10.640;2023-08-06T09:30:37;3.22;;;1.50;;
40150;SDS011;25866;52.420;10.640;2023-08-06T09:33:03;1.63;;;1.35;;
40150;SDS011;25866;52.420;10.640;2023-08-06T09:35:33;2.38;;;1.20;;
40150;SDS011;25866;52.420;10.640;2023-08-06T09:38:05;3.30;;;1.40;;
40150;SDS011;25866;52.420;10.640;2023-08-06T09:40:32;1.45;;;1.30;;
40150;SDS011;25866;52.420;10.640;2023-08-06T09:42:58;1.40;;;1.30;;
40150;SDS011;25866;52.420;10.640;2023-08-06T09:45:31;3.08;;;1.50;;
40150;SDS011;25866;52.420;10.640;2023-08-06T09:48:04;1.98;;;1.77;;
40150;SDS011;25866;52.420;10.640;2023-08-06T09:50:35;1.40;;;1.30;;
40150;SDS011;25866;52.420;10.640;2023-08-06T09:53:04;1.95;;;1.40;;
40150;SDS011;25866;52.420;10.640;2023-08-06T09:55:32;1.20;;;1.10;;
40150;SDS011;25866;52.420;10.640;2023-08-06T09:57:59;2.90;;;1.30;;
40150;SDS011;25866;52.420;10.640;2023-08-06T10:03:02;1.63;;;1.20;;
40150;SDS011;25866;52.420;10.640;2023-08-06T10:05:27;1.35;;;1.25;;
40150;SDS011;25866;52.420;10.640;2023-08-06T10:07:54;1.60;;;0.88;;
40150;SDS011;25866;52.420;10.640;2023-08-06T10:10:28;2.60;;;1.05;;
40150;SDS011;25866;52.420;10.640;2023-08-06T10:12:55;2.35;;;1.02;;
40150;SDS011;25866;52.420;10.640;2023-08-06T10:15:24;1.80;;;1.00;;
40150;SDS011;25866;52.420;10.640;2023-08-06T10:17:53;1.42;;;1.05;;
40150;SDS011;25866;52.420;10.640;2023-08-06T10:20:22;1.20;;;1.10;;
40150;SDS011;25866;52.420;10.640;2023-08-06T10:23:09;1.45;;;1.10;;
40150;SDS011;25866;52.420;10.640;2023-08-06T10:25:34;1.40;;;1.25;;
40150;SDS011;25866;52.420;10.640;2023-08-06T10:28:08;1.33;;;1.17;;
40150;SDS011;25866;52.420;10.640;2023-08-06T10:30:45;1.63;;;1.30;;
40150;SDS011;25866;52.420;10.640;2023-08-06T10:33:12;1.30;;;1.13;;
40150;SDS011;25866;52.420;10.640;2023-08-06T10:35:42;1.17;;;1.08;;
40150;SDS011;25866;52.420;10.640;2023-08-06T10:38:09;3.35;;;1.17;;
40150;SDS011;25866;52.420;10.640;2023-08-06T10:40:37;3.05;;;1.08;;
40150;SDS011;25866;52.420;10.640;2023-08-06T10:43:05;1.73;;;1.17;;
40150;SDS011;25866;52.420;10.640;2023-08-06T10:45:36;1.38;;;1.05;;
40150;SDS011;25866;52.420;10.640;2023-08-06T10:48:03;1.83;;;1.20;;
40150;SDS011;25866;52.420;10.640;2023-08-06T10:50:30;2.72;;;1.10;;
40150;SDS011;25866;52.420;10.640;2023-08-06T10:52:57;1.65;;;1.10;;
40150;SDS011;25866;52.420;10.640;2023-08-06T10:55:23;1.10;;;1.00;;
40150;SDS011;25866;52.420;10.640;2023-08-06T10:57:51;1.50;;;1.00;;
40150;SDS011;25866;52.420;10.640;2023-08-06T11:05:20;0.90;;;0.90;;
40150;SDS011;25866;52.420;10.640;2023-08-06T11:07:46;2.05;;;1.10;;
40150;SDS011;25866;52.420;10.640;2023-08-06T11:10:15;1.50;;;1.00;;
40150;SDS011;25866;52.420;10.640;2023-08-06T11:12:41;0.85;;;0.82;;
40150;SDS011;25866;52.420;10.640;2023-08-06T11:15:09;1.17;;;1.08;;
40150;SDS011;25866;52.420;10.640;2023-08-06T11:17:36;1.10;;;0.90;;
40150;SDS011;25866;52.420;10.640;2023-08-06T11:20:04;1.70;;;1.10;;
40150;SDS011;25866;52.420;10.640;2023-08-06T11:22:30;1.23;;;0.85;;
40150;SDS011;25866;52.420;10.640;2023-08-06T11:24:57;1.35;;;1.10;;
40150;SDS011;25866;52.420;10.640;2023-08-06T11:27:23;2.15;;;1.10;;
40150;SDS011;25866;52.420;10.640;2023-08-06T11:29:51;0.88;;;0.73;;
40150;SDS011;25866;52.420;10.640;2023-08-06T11:32:20;1.23;;;0.93;;
40150;SDS011;25866;52.420;10.640;2023-08-06T11:34:46;1.23;;;1.02;;
40150;SDS011;25866;52.420;10.640;2023-08-06T11:37:12;1.60;;;1.13;;
40150;SDS011;25866;52.420;10.640;2023-08-06T11:39:38;1.38;;;1.00;;
40150;SDS011;25866;52.420;10.640;2023-08-06T11:42:13;1.48;;;1.02;;
40150;SDS011;25866;52.420;10.640;2023-08-06T11:44:40;1.13;;;1.00;;
40150;SDS011;25866;52.420;10.640;2023-08-06T11:47:12;1.80;;;0.90;;
40150;SDS011;25866;52.420;10.640;2023-08-06T11:52:16;1.35;;;1.08;;
40150;SDS011;25866;52.420;10.640;2023-08-06T11:55:09;2.15;;;1.23;;
40150;SDS011;25866;52.420;10.640;2023-08-06T12:00:13;1.05;;;0.95;;
40150;SDS011;25866;52.420;10.640;2023-08-06T12:02:40;2.40;;;1.00;;
40150;SDS011;25866;52.420;10.640;2023-08-06T12:07:43;1.10;;;1.00;;
40150;SDS011;25866;52.420;10.640;2023-08-06T12:10:10;1.40;;;0.95;;
40150;SDS011;25866;52.420;10.640;2023-08-06T12:12:39;1.30;;;1.00;;
40150;SDS011;25866;52.420;10.640;2023-08-06T12:15:06;0.82;;;0.82;;
40150;SDS011;25866;52.420;10.640;2023-08-06T12:17:32;3.97;;;1.00;;
40150;SDS011;25866;52.420;10.640;2023-08-06T12:19:58;1.45;;;1.10;;
40150;SDS011;25866;52.420;10.640;2023-08-06T12:22:25;2.28;;;1.15;;
40150;SDS011;25866;52.420;10.640;2023-08-06T12:24:50;1.35;;;1.00;;
40150;SDS011;25866;52.420;10.640;2023-08-06T12:27:18;2.17;;;1.20;;
40150;SDS011;25866;52.420;10.640;2023-08-06T12:29:45;2.63;;;0.93;;
40150;SDS011;25866;52.420;10.640;2023-08-06T12:32:13;1.85;;;0.90;;
40150;SDS011;25866;52.420;10.640;2023-08-06T12:34:41;1.42;;;1.10;;
40150;SDS011;25866;52.420;10.640;2023-08-06T12:37:08;1.48;;;1.00;;
40150;SDS011;25866;52.420;10.640;2023-08-06T12:39:34;1.55;;;1.00;;
40150;SDS011;25866;52.420;10.640;2023-08-06T12:42:13;1.80;;;1.17;;
40150;SDS011;25866;52.420;10.640;2023-08-06T12:44:39;1.58;;;1.13;;
40150;SDS011;25866;52.420;10.640;2023-08-06T12:47:07;1.10;;;1.00;;
40150;SDS011;25866;52.420;10.640;2023-08-06T12:49:33;1.10;;;1.00;;
40150;SDS011;25866;52.420;10.640;2023-08-06T12:52:00;2.10;;;1.20;;
40150;SDS011;25866;52.420;10.640;2023-08-06T12:54:26;1.40;;;1.00;;
40150;SDS011;25866;52.420;10.640;2023-08-06T12:56:52;1.20;;;0.88;;
40150;SDS011;25866;52.420;10.640;2023-08-06T12:59:22;2.10;;;1.02;;
40150;SDS011;25866;52.420;10.640;2023-08-06T13:01:57;1.38;;;0.98;;
40150;SDS011;25866;52.420;10.640;2023-08-06T13:04:25;2.55;;;1.60;;
40150;SDS011;25866;52.420;10.640;2023-08-06T13:06:51;2.33;;;1.38;;
40150;SDS011;25866;52.420;10.640;2023-08-06T13:09:17;2.88;;;1.05;;
40150;SDS011;25866;52.420;10.640;2023-08-06T13:11:42;1.95;;;1.20;;
40150;SDS011;25866;52.420;10.640;2023-08-06T13:14:17;1.10;;;1.00;;
40150;SDS011;25866;52.420;10.640;2023-08-06T13:16:43;1.52;;;1.05;;
40150;SDS011;25866;52.420;10.640;2023-08-06T13:19:10;1.45;;;1.00;;
40150;SDS011;25866;52.420;10.640;2023-08-06T13:24:07;1.30;;;1.10;;
40150;SDS011;25866;52.420;10.640;2023-08-06T13:26:33;2.15;;;1.00;;
40150;SDS011;25866;52.420;10.640;2023-08-06T13:29:00;2.08;;;1.23;;
40150;SDS011;25866;52.420;10.640;2023-08-06T13:31:27;1.30;;;1.00;;
40150;SDS011;25866;52.420;10.640;2023-08-06T13:33:59;1.20;;;1.10;;
40150;SDS011;25866;52.420;10.640;2023-08-06T13:36:25;1.45;;;1.10;;
40150;SDS011;25866;52.420;10.640;2023-08-06T13:38:51;1.30;;;1.20;;
40150;SDS011;25866;52.420;10.640;2023-08-06T13:41:17;2.20;;;1.20;;
40150;SDS011;25866;52.420;10.640;2023-08-06T13:43:59;2.53;;;1.65;;
40150;SDS011;25866;52.420;10.640;2023-08-06T13:46:25;2.85;;;1.23;;
40150;SDS011;25866;52.420;10.640;2023-08-06T13:48:51;1.92;;;1.23;;
40150;SDS011;25866;52.420;10.640;2023-08-06T13:51:16;3.03;;;1.60;;
40150;SDS011;25866;52.420;10.640;2023-08-06T13:53:44;2.15;;;1.30;;
40150;SDS011;25866;52.420;10.640;2023-08-06T13:56:10;1.60;;;1.25;;
40150;SDS011;25866;52.420;10.640;2023-08-06T13:58:36;3.70;;;1.35;;
40150;SDS011;25866;52.420;10.640;2023-08-06T14:01:02;3.05;;;1.20;;
40150;SDS011;25866;52.420;10.640;2023-08-06T14:03:29;2.28;;;1.33;;
40150;SDS011;25866;52.420;10.640;2023-08-06T14:05:55;3.70;;;1.50;;
40150;SDS011;25866;52.420;10.640;2023-08-06T14:08:22;3.03;;;1.40;;
40150;SDS011;25866;52.420;10.640;2023-08-06T14:10:51;2.10;;;1.27;;
40150;SDS011;25866;52.420;10.640;2023-08-06T14:13:17;3.28;;;1.42;;
40150;SDS011;25866;52.420;10.640;2023-08-06T14:15:50;1.75;;;1.35;;
40150;SDS011;25866;52.420;10.640;2023-08-06T14:18:16;2.13;;;1.35;;
40150;SDS011;25866;52.420;10.640;2023-08-06T14:20:42;4.60;;;1.80;;
40150;SDS011;25866;52.420;10.640;2023-08-06T14:23:08;2.15;;;1.58;;
40150;SDS011;25866;52.420;10.640;2023-08-06T14:25:34;1.90;;;1.50;;
40150;SDS011;25866;52.420;10.640;2023-08-06T14:28:00;2.63;;;1.50;;
40150;SDS011;25866;52.420;10.640;2023-08-06T14:30:26;3.95;;;1.50;;
40150;SDS011;25866;52.420;10.640;2023-08-06T14:32:51;2.13;;;1.60;;
40150;SDS011;25866;52.420;10.640;2023-08-06T14:37:48;3.33;;;1.60;;
40150;SDS011;25866;52.420;10.640;2023-08-06T14:40:14;2.28;;;1.55;;
40150;SDS011;25866;52.420;10.640;2023-08-06T14:42:40;3.08;;;1.50;;
40150;SDS011;25866;52.420;10.640;2023-08-06T14:45:06;3.22;;;1.60;;
40150;SDS011;25866;52.420;10.640;2023-08-06T14:47:31;2.75;;;1.80;;
40150;SDS011;25866;52.420;10.640;2023-08-06T14:49:57;1.85;;;1.60;;
40150;SDS011;25866;52.420;10.640;2023-08-06T14:52:23;1.52;;;1.30;;
40150;SDS011;25866;52.420;10.640;2023-08-06T14:54:56;2.20;;;1.50;;
40150;SDS011;25866;52.420;10.640;2023-08-06T14:57:21;2.78;;;1.52;;
40150;SDS011;25866;52.420;10.640;2023-08-06T14:59:52;2.92;;;1.55;;
40150;SDS011;25866;52.420;10.640;2023-08-06T15:02:18;1.60;;;1.50;;
40150;SDS011;25866;52.420;10.640;2023-08-06T15:04:54;2.22;;;1.40;;
40150;SDS011;25866;52.420;10.640;2023-08-06T15:07:20;3.80;;;1.50;;